sensor_id;sensor_type;location;lat;lon;timestamp;temperature;humidity
29803;DHT22;16702;50.898;4.662;2022-12-07T00:02:19;7.50;99.90
29803;DHT22;16702;50.898;4.662;2022-12-07T00:04:50;7.50;99.90
29803;DHT22;16702;50.898;4.662;2022-12-07T00:07:20;7.50;99.90
29803;DHT22;16702;50.898;4.662;2022-12-07T00:09:57;7.40;99.90
29803;DHT22;16702;50.898;4.662;2022-12-07T00:12:27;7.50;99.90
29803;DHT22;16702;50.898;4.662;2022-12-07T00:14:58;7.50;99.90
29803;DHT22;16702;50.898;4.662;2022-12-07T00:17:28;7.50;99.90
29803;DHT22;16702;50.898;4.662;2022-12-07T00:19:59;7.40;99.90
29803;DHT22;16702;50.898;4.662;2022-12-07T00:22:30;7.40;99.90
29803;DHT22;16702;50.898;4.662;2022-12-07T00:25:04;7.30;99.90
29803;DHT22;16702;50.898;4.662;2022-12-07T00:27:34;7.50;99.90
29803;DHT22;16702;50.898;4.662;2022-12-07T00:30:06;7.40;99.90
29803;DHT22;16702;50.898;4.662;2022-12-07T00:32:36;7.40;99.90
29803;DHT22;16702;50.898;4.662;2022-12-07T00:35:08;7.40;99.90
29803;DHT22;16702;50.898;4.662;2022-12-07T00:37:38;7.40;99.90
29803;DHT22;16702;50.898;4.662;2022-12-07T00:40:12;7.40;99.90
29803;DHT22;16702;50.898;4.662;2022-12-07T00:42:42;7.40;99.90
29803;DHT22;16702;50.898;4.662;2022-12-07T00:45:13;7.30;99.90
29803;DHT22;16702;50.898;4.662;2022-12-07T00:47:43;7.30;99.90
29803;DHT22;16702;50.898;4.662;2022-12-07T00:50:14;7.30;99.90
29803;DHT22;16702;50.898;4.662;2022-12-07T00:52:44;7.20;99.90
29803;DHT22;16702;50.898;4.662;2022-12-07T00:55:17;7.30;99.90
29803;DHT22;16702;50.898;4.662;2022-12-07T00:57:47;7.30;99.90
29803;DHT22;16702;50.898;4.662;2022-12-07T01:00:18;7.30;99.90
29803;DHT22;16702;50.898;4.662;2022-12-07T01:02:48;7.30;99.90
29803;DHT22;16702;50.898;4.662;2022-12-07T01:05:19;7.20;99.90
29803;DHT22;16702;50.898;4.662;2022-12-07T01:07:49;7.20;99.90
29803;DHT22;16702;50.898;4.662;2022-12-07T01:10:22;7.20;99.90
29803;DHT22;16702;50.898;4.662;2022-12-07T01:12:53;7.30;99.90
29803;DHT22;16702;50.898;4.662;2022-12-07T01:15:23;7.20;99.90
29803;DHT22;16702;50.898;4.662;2022-12-07T01:17:53;7.20;99.90
29803;DHT22;16702;50.898;4.662;2022-12-07T01:20:24;7.30;99.90
29803;DHT22;16702;50.898;4.662;2022-12-07T01:22:54;7.20;99.90
29803;DHT22;16702;50.898;4.662;2022-12-07T01:25:28;7.20;99.90
29803;DHT22;16702;50.898;4.662;2022-12-07T01:27:58;7.10;99.90
29803;DHT22;16702;50.898;4.662;2022-12-07T01:30:28;7.10;99.90
29803;DHT22;16702;50.898;4.662;2022-12-07T01:32:59;7.10;99.90
29803;DHT22;16702;50.898;4.662;2022-12-07T01:35:29;7.20;99.90
29803;DHT22;16702;50.898;4.662;2022-12-07T01:38:00;7.10;99.90
29803;DHT22;16702;50.898;4.662;2022-12-07T01:40:33;7.10;99.90
29803;DHT22;16702;50.898;4.662;2022-12-07T01:43:04;7.10;99.90
29803;DHT22;16702;50.898;4.662;2022-12-07T01:45:40;7.10;99.90
29803;DHT22;16702;50.898;4.662;2022-12-07T01:48:14;7.10;99.90
29803;DHT22;16702;50.898;4.662;2022-12-07T01:50:48;7.10;99.90
29803;DHT22;16702;50.898;4.662;2022-12-07T01:53:19;7.20;99.90
29803;DHT22;16702;50.898;4.662;2022-12-07T01:55:53;7.10;99.90
29803;DHT22;16702;50.898;4.662;2022-12-07T01:58:25;7.20;99.90
29803;DHT22;16702;50.898;4.662;2022-12-07T02:00:56;7.10;99.90
29803;DHT22;16702;50.898;4.662;2022-12-07T02:03:31;7.20;99.90
29803;DHT22;16702;50.898;4.662;2022-12-07T02:06:04;7.10;99.90
29803;DHT22;16702;50.898;4.662;2022-12-07T02:08:35;7.10;99.90
29803;DHT22;16702;50.898;4.662;2022-12-07T02:11:08;7.20;99.90
29803;DHT22;16702;50.898;4.662;2022-12-07T02:13:41;7.20;99.90
29803;DHT22;16702;50.898;4.662;2022-12-07T02:16:25;7.20;99.90
29803;DHT22;16702;50.898;4.662;2022-12-07T02:19:09;7.10;99.90
29803;DHT22;16702;50.898;4.662;2022-12-07T02:21:47;7.10;99.90
29803;DHT22;16702;50.898;4.662;2022-12-07T02:24:29;7.00;99.90
29803;DHT22;16702;50.898;4.662;2022-12-07T02:27:32;7.00;99.90
29803;DHT22;16702;50.898;4.662;2022-12-07T02:30:09;7.00;99.90
29803;DHT22;16702;50.898;4.662;2022-12-07T02:32:48;7.00;99.90
29803;DHT22;16702;50.898;4.662;2022-12-07T02:35:23;7.00;99.90
29803;DHT22;16702;50.898;4.662;2022-12-07T02:38:01;7.00;99.90
29803;DHT22;16702;50.898;4.662;2022-12-07T02:40:37;7.00;99.90
29803;DHT22;16702;50.898;4.662;2022-12-07T02:43:14;7.00;99.90
29803;DHT22;16702;50.898;4.662;2022-12-07T02:45:48;7.00;99.90
29803;DHT22;16702;50.898;4.662;2022-12-07T02:48:21;7.00;99.90
29803;DHT22;16702;50.898;4.662;2022-12-07T02:50:53;7.00;99.90
29803;DHT22;16702;50.898;4.662;2022-12-07T02:53:31;7.00;99.90
29803;DHT22;16702;50.898;4.662;2022-12-07T02:56:05;7.20;99.90
29803;DHT22;16702;50.898;4.662;2022-12-07T02:58:44;7.10;99.90
29803;DHT22;16702;50.898;4.662;2022-12-07T03:01:28;7.00;99.90
29803;DHT22;16702;50.898;4.662;2022-12-07T03:04:08;7.00;99.90
29803;DHT22;16702;50.898;4.662;2022-12-07T03:06:45;7.00;99.90
29803;DHT22;16702;50.898;4.662;2022-12-07T03:09:22;7.00;99.90
29803;DHT22;16702;50.898;4.662;2022-12-07T03:12:03;7.00;99.90
29803;DHT22;16702;50.898;4.662;2022-12-07T03:14:41;7.00;99.90
29803;DHT22;16702;50.898;4.662;2022-12-07T03:17:20;7.00;99.90
29803;DHT22;16702;50.898;4.662;2022-12-07T03:19:55;7.10;99.90
29803;DHT22;16702;50.898;4.662;2022-12-07T03:22:30;7.10;99.90
29803;DHT22;16702;50.898;4.662;2022-12-07T03:25:05;7.10;99.90
29803;DHT22;16702;50.898;4.662;2022-12-07T03:27:39;7.10;99.90
29803;DHT22;16702;50.898;4.662;2022-12-07T03:30:14;7.10;99.90
29803;DHT22;16702;50.898;4.662;2022-12-07T03:32:50;7.10;99.90
29803;DHT22;16702;50.898;4.662;2022-12-07T03:35:26;7.00;99.90
29803;DHT22;16702;50.898;4.662;2022-12-07T03:37:59;7.00;99.90
29803;DHT22;16702;50.898;4.662;2022-12-07T03:40:35;7.00;99.90
29803;DHT22;16702;50.898;4.662;2022-12-07T03:43:07;7.00;99.90
29803;DHT22;16702;50.898;4.662;2022-12-07T03:45:40;7.00;99.90
29803;DHT22;16702;50.898;4.662;2022-12-07T03:48:22;7.10;99.90
29803;DHT22;16702;50.898;4.662;2022-12-07T03:50:59;7.00;99.90
29803;DHT22;16702;50.898;4.662;2022-12-07T03:53:35;7.00;99.90
29803;DHT22;16702;50.898;4.662;2022-12-07T03:56:08;7.00;99.90
29803;DHT22;16702;50.898;4.662;2022-12-07T03:58:40;7.00;99.90
29803;DHT22;16702;50.898;4.662;2022-12-07T04:01:11;7.00;99.90
29803;DHT22;16702;50.898;4.662;2022-12-07T04:03:44;7.00;99.90
29803;DHT22;16702;50.898;4.662;2022-12-07T04:06:15;7.00;99.90
29803;DHT22;16702;50.898;4.662;2022-12-07T04:08:45;7.10;99.90
29803;DHT22;16702;50.898;4.662;2022-12-07T04:11:16;7.00;99.90
29803;DHT22;16702;50.898;4.662;2022-12-07T04:13:46;7.00;99.90
29803;DHT22;16702;50.898;4.662;2022-12-07T04:16:38;7.00;99.90
29803;DHT22;16702;50.898;4.662;2022-12-07T04:19:14;6.90;99.90
29803;DHT22;16702;50.898;4.662;2022-12-07T04:21:45;7.00;99.90
29803;DHT22;16702;50.898;4.662;2022-12-07T04:24:16;6.90;99.90
29803;DHT22;16702;50.898;4.662;2022-12-07T04:26:47;6.90;99.90
29803;DHT22;16702;50.898;4.662;2022-12-07T04:29:17;6.90;99.90
29803;DHT22;16702;50.898;4.662;2022-12-07T04:31:48;6.90;99.90
29803;DHT22;16702;50.898;4.662;2022-12-07T04:34:21;6.80;99.90
29803;DHT22;16702;50.898;4.662;2022-12-07T04:36:52;7.00;99.90
29803;DHT22;16702;50.898;4.662;2022-12-07T04:39:24;6.80;99.90
29803;DHT22;16702;50.898;4.662;2022-12-07T04:41:56;6.80;99.90
29803;DHT22;16702;50.898;4.662;2022-12-07T04:44:28;6.90;99.90
29803;DHT22;16702;50.898;4.662;2022-12-07T04:46:58;6.80;99.90
29803;DHT22;16702;50.898;4.662;2022-12-07T04:49:31;6.90;99.90
29803;DHT22;16702;50.898;4.662;2022-12-07T04:52:02;6.90;99.90
29803;DHT22;16702;50.898;4.662;2022-12-07T04:54:32;6.90;99.90
29803;DHT22;16702;50.898;4.662;2022-12-07T04:57:03;6.90;99.90
29803;DHT22;16702;50.898;4.662;2022-12-07T04:59:33;6.80;99.90
29803;DHT22;16702;50.898;4.662;2022-12-07T05:02:11;6.90;99.90
29803;DHT22;16702;50.898;4.662;2022-12-07T05:04:44;6.80;99.90
29803;DHT22;16702;50.898;4.662;2022-12-07T05:07:14;6.80;99.90
29803;DHT22;16702;50.898;4.662;2022-12-07T05:09:45;6.80;99.90
29803;DHT22;16702;50.898;4.662;2022-12-07T05:12:15;6.80;99.90
29803;DHT22;16702;50.898;4.662;2022-12-07T05:14:45;6.90;99.90
29803;DHT22;16702;50.898;4.662;2022-12-07T05:17:16;6.70;99.90
29803;DHT22;16702;50.898;4.662;2022-12-07T05:19:48;6.70;99.90
29803;DHT22;16702;50.898;4.662;2022-12-07T05:22:19;6.70;99.90
29803;DHT22;16702;50.898;4.662;2022-12-07T05:24:49;6.70;99.90
29803;DHT22;16702;50.898;4.662;2022-12-07T05:27:19;6.80;99.90
29803;DHT22;16702;50.898;4.662;2022-12-07T05:29:50;6.70;99.90
29803;DHT22;16702;50.898;4.662;2022-12-07T05:32:20;6.80;99.90
29803;DHT22;16702;50.898;4.662;2022-12-07T05:34:53;6.80;99.90
29803;DHT22;16702;50.898;4.662;2022-12-07T05:37:23;6.90;99.90
29803;DHT22;16702;50.898;4.662;2022-12-07T05:39:54;6.80;99.90
29803;DHT22;16702;50.898;4.662;2022-12-07T05:42:24;6.80;99.90
29803;DHT22;16702;50.898;4.662;2022-12-07T05:44:55;6.80;99.90
29803;DHT22;16702;50.898;4.662;2022-12-07T05:47:25;6.80;99.90
29803;DHT22;16702;50.898;4.662;2022-12-07T05:49:58;6.80;99.90
29803;DHT22;16702;50.898;4.662;2022-12-07T05:52:29;6.80;99.90
29803;DHT22;16702;50.898;4.662;2022-12-07T05:54:59;6.80;99.90
29803;DHT22;16702;50.898;4.662;2022-12-07T05:57:29;6.80;99.90
29803;DHT22;16702;50.898;4.662;2022-12-07T06:00:00;6.70;99.90
29803;DHT22;16702;50.898;4.662;2022-12-07T06:02:38;6.90;99.90
29803;DHT22;16702;50.898;4.662;2022-12-07T06:05:11;6.70;99.90
29803;DHT22;16702;50.898;4.662;2022-12-07T06:07:41;6.80;99.90
29803;DHT22;16702;50.898;4.662;2022-12-07T06:10:12;6.80;99.90
29803;DHT22;16702;50.898;4.662;2022-12-07T06:12:42;6.80;99.90
29803;DHT22;16702;50.898;4.662;2022-12-07T06:15:10;6.80;99.90
29803;DHT22;16702;50.898;4.662;2022-12-07T06:17:41;6.70;99.90
29803;DHT22;16702;50.898;4.662;2022-12-07T06:20:13;6.80;99.90
29803;DHT22;16702;50.898;4.662;2022-12-07T06:22:44;6.80;99.90
29803;DHT22;16702;50.898;4.662;2022-12-07T06:25:14;6.90;99.90
29803;DHT22;16702;50.898;4.662;2022-12-07T06:27:45;6.80;99.90
29803;DHT22;16702;50.898;4.662;2022-12-07T06:30:16;6.80;99.90
29803;DHT22;16702;50.898;4.662;2022-12-07T06:32:46;6.80;99.90
29803;DHT22;16702;50.898;4.662;2022-12-07T06:35:19;6.80;99.90
29803;DHT22;16702;50.898;4.662;2022-12-07T06:37:49;6.80;99.90
29803;DHT22;16702;50.898;4.662;2022-12-07T06:40:20;6.80;99.90
29803;DHT22;16702;50.898;4.662;2022-12-07T06:42:50;6.90;99.90
29803;DHT22;16702;50.898;4.662;2022-12-07T06:45:20;6.80;99.90
29803;DHT22;16702;50.898;4.662;2022-12-07T06:47:51;6.80;99.90
29803;DHT22;16702;50.898;4.662;2022-12-07T06:50:24;6.80;99.90
29803;DHT22;16702;50.898;4.662;2022-12-07T06:52:54;6.80;99.90
29803;DHT22;16702;50.898;4.662;2022-12-07T06:55:25;6.80;99.90
29803;DHT22;16702;50.898;4.662;2022-12-07T06:57:55;6.80;99.90
29803;DHT22;16702;50.898;4.662;2022-12-07T07:00:26;6.80;99.90
29803;DHT22;16702;50.898;4.662;2022-12-07T07:02:57;6.80;99.90
29803;DHT22;16702;50.898;4.662;2022-12-07T07:05:29;6.90;99.90
29803;DHT22;16702;50.898;4.662;2022-12-07T07:08:00;6.80;99.90
29803;DHT22;16702;50.898;4.662;2022-12-07T07:10:48;6.80;99.90
29803;DHT22;16702;50.898;4.662;2022-12-07T07:13:18;6.70;99.90
29803;DHT22;16702;50.898;4.662;2022-12-07T07:15:49;6.80;99.90
29803;DHT22;16702;50.898;4.662;2022-12-07T07:18:19;6.80;99.90
29803;DHT22;16702;50.898;4.662;2022-12-07T07:20:53;6.70;99.90
29803;DHT22;16702;50.898;4.662;2022-12-07T07:23:23;6.70;99.90
29803;DHT22;16702;50.898;4.662;2022-12-07T07:25:54;6.70;99.90
29803;DHT22;16702;50.898;4.662;2022-12-07T07:28:24;6.70;99.90
29803;DHT22;16702;50.898;4.662;2022-12-07T07:30:55;6.70;99.90
29803;DHT22;16702;50.898;4.662;2022-12-07T07:33:25;6.70;99.90
29803;DHT22;16702;50.898;4.662;2022-12-07T07:35:58;6.70;99.90
29803;DHT22;16702;50.898;4.662;2022-12-07T07:38:28;6.70;99.90
29803;DHT22;16702;50.898;4.662;2022-12-07T07:40:59;6.70;99.90
29803;DHT22;16702;50.898;4.662;2022-12-07T07:43:29;6.70;99.90
29803;DHT22;16702;50.898;4.662;2022-12-07T07:45:59;6.70;99.90
29803;DHT22;16702;50.898;4.662;2022-12-07T07:48:30;6.70;99.90
29803;DHT22;16702;50.898;4.662;2022-12-07T07:51:05;7.10;99.90
29803;DHT22;16702;50.898;4.662;2022-12-07T07:53:36;6.90;99.90
29803;DHT22;16702;50.898;4.662;2022-12-07T07:56:06;6.80;99.90
29803;DHT22;16702;50.898;4.662;2022-12-07T07:58:37;6.80;99.90
29803;DHT22;16702;50.898;4.662;2022-12-07T08:01:08;6.70;99.90
29803;DHT22;16702;50.898;4.662;2022-12-07T08:03:38;6.70;99.90
29803;DHT22;16702;50.898;4.662;2022-12-07T08:06:11;6.70;99.90
29803;DHT22;16702;50.898;4.662;2022-12-07T08:08:42;6.60;99.90
29803;DHT22;16702;50.898;4.662;2022-12-07T08:11:12;6.60;99.90
29803;DHT22;16702;50.898;4.662;2022-12-07T08:13:45;6.60;99.90
29803;DHT22;16702;50.898;4.662;2022-12-07T08:16:15;6.60;99.90
29803;DHT22;16702;50.898;4.662;2022-12-07T08:18:46;6.60;99.90
29803;DHT22;16702;50.898;4.662;2022-12-07T08:21:19;6.60;99.90
29803;DHT22;16702;50.898;4.662;2022-12-07T08:23:50;6.60;99.90
29803;DHT22;16702;50.898;4.662;2022-12-07T08:26:20;6.60;99.90
29803;DHT22;16702;50.898;4.662;2022-12-07T08:28:52;6.60;99.90
29803;DHT22;16702;50.898;4.662;2022-12-07T08:31:22;6.50;99.90
29803;DHT22;16702;50.898;4.662;2022-12-07T08:33:53;6.50;99.90
29803;DHT22;16702;50.898;4.662;2022-12-07T08:36:27;6.50;99.90
29803;DHT22;16702;50.898;4.662;2022-12-07T08:38:57;6.50;99.90
29803;DHT22;16702;50.898;4.662;2022-12-07T08:41:47;6.50;99.90
29803;DHT22;16702;50.898;4.662;2022-12-07T08:44:18;6.50;99.90
29803;DHT22;16702;50.898;4.662;2022-12-07T08:46:51;6.60;99.90
29803;DHT22;16702;50.898;4.662;2022-12-07T08:49:25;6.60;99.90
29803;DHT22;16702;50.898;4.662;2022-12-07T08:52:00;6.60;99.90
29803;DHT22;16702;50.898;4.662;2022-12-07T08:54:34;6.60;99.90
29803;DHT22;16702;50.898;4.662;2022-12-07T08:57:06;6.60;99.90
29803;DHT22;16702;50.898;4.662;2022-12-07T08:59:37;6.70;99.90
29803;DHT22;16702;50.898;4.662;2022-12-07T09:02:07;6.70;99.90
29803;DHT22;16702;50.898;4.662;2022-12-07T09:04:38;6.60;99.90
29803;DHT22;16702;50.898;4.662;2022-12-07T09:07:11;6.60;99.90
29803;DHT22;16702;50.898;4.662;2022-12-07T09:09:41;6.70;99.90
29803;DHT22;16702;50.898;4.662;2022-12-07T09:12:12;6.70;99.90
29803;DHT22;16702;50.898;4.662;2022-12-07T09:14:42;6.70;99.90
29803;DHT22;16702;50.898;4.662;2022-12-07T09:17:13;6.70;99.90
29803;DHT22;16702;50.898;4.662;2022-12-07T09:19:43;6.70;99.90
29803;DHT22;16702;50.898;4.662;2022-12-07T09:22:16;6.70;99.90
29803;DHT22;16702;50.898;4.662;2022-12-07T09:24:47;6.70;99.90
29803;DHT22;16702;50.898;4.662;2022-12-07T09:27:17;6.80;99.90
29803;DHT22;16702;50.898;4.662;2022-12-07T09:29:47;6.90;99.90
29803;DHT22;16702;50.898;4.662;2022-12-07T09:32:18;6.80;99.90
29803;DHT22;16702;50.898;4.662;2022-12-07T09:34:49;6.70;99.90
29803;DHT22;16702;50.898;4.662;2022-12-07T09:37:22;6.80;99.90
29803;DHT22;16702;50.898;4.662;2022-12-07T09:39:53;6.80;99.90
29803;DHT22;16702;50.898;4.662;2022-12-07T09:42:29;6.80;99.90
29803;DHT22;16702;50.898;4.662;2022-12-07T09:45:01;6.80;99.90
29803;DHT22;16702;50.898;4.662;2022-12-07T09:47:33;6.90;99.90
29803;DHT22;16702;50.898;4.662;2022-12-07T09:50:06;6.90;99.90
29803;DHT22;16702;50.898;4.662;2022-12-07T09:52:40;6.90;99.90
29803;DHT22;16702;50.898;4.662;2022-12-07T09:55:14;6.90;99.90
29803;DHT22;16702;50.898;4.662;2022-12-07T09:57:44;6.90;99.90
29803;DHT22;16702;50.898;4.662;2022-12-07T10:00:17;6.90;99.90
29803;DHT22;16702;50.898;4.662;2022-12-07T10:02:53;6.90;99.90
29803;DHT22;16702;50.898;4.662;2022-12-07T10:05:28;7.00;99.90
29803;DHT22;16702;50.898;4.662;2022-12-07T10:08:03;7.00;99.90
29803;DHT22;16702;50.898;4.662;2022-12-07T10:10:34;7.00;99.90
29803;DHT22;16702;50.898;4.662;2022-12-07T10:13:08;7.00;99.90
29803;DHT22;16702;50.898;4.662;2022-12-07T10:15:51;7.00;99.90
29803;DHT22;16702;50.898;4.662;2022-12-07T10:18:28;7.10;99.90
29803;DHT22;16702;50.898;4.662;2022-12-07T10:21:13;7.10;99.90
29803;DHT22;16702;50.898;4.662;2022-12-07T10:24:00;7.10;99.90
29803;DHT22;16702;50.898;4.662;2022-12-07T10:26:33;7.10;99.90
29803;DHT22;16702;50.898;4.662;2022-12-07T10:29:15;7.20;99.90
29803;DHT22;16702;50.898;4.662;2022-12-07T10:31:52;7.10;99.90
29803;DHT22;16702;50.898;4.662;2022-12-07T10:34:26;7.10;99.90
29803;DHT22;16702;50.898;4.662;2022-12-07T10:37:16;7.20;99.90
29803;DHT22;16702;50.898;4.662;2022-12-07T10:39:52;7.50;99.90
29803;DHT22;16702;50.898;4.662;2022-12-07T10:42:25;7.40;99.90
29803;DHT22;16702;50.898;4.662;2022-12-07T10:45:09;7.40;99.90
29803;DHT22;16702;50.898;4.662;2022-12-07T10:47:47;7.30;99.90
29803;DHT22;16702;50.898;4.662;2022-12-07T10:50:41;7.30;99.90
29803;DHT22;16702;50.898;4.662;2022-12-07T10:53:48;7.50;99.90
29803;DHT22;16702;50.898;4.662;2022-12-07T10:56:48;7.50;99.90
29803;DHT22;16702;50.898;4.662;2022-12-07T11:02:32;7.40;99.90
29803;DHT22;16702;50.898;4.662;2022-12-07T11:05:17;7.40;99.90
29803;DHT22;16702;50.898;4.662;2022-12-07T11:07:58;7.30;99.90
29803;DHT22;16702;50.898;4.662;2022-12-07T11:10:36;7.30;99.90
29803;DHT22;16702;50.898;4.662;2022-12-07T11:13:21;7.30;99.90
29803;DHT22;16702;50.898;4.662;2022-12-07T11:19:09;7.30;99.90
29803;DHT22;16702;50.898;4.662;2022-12-07T11:21:48;7.40;99.90
29803;DHT22;16702;50.898;4.662;2022-12-07T11:24:30;7.40;99.90
29803;DHT22;16702;50.898;4.662;2022-12-07T11:27:14;7.40;99.90
29803;DHT22;16702;50.898;4.662;2022-12-07T11:29:59;7.40;99.90
29803;DHT22;16702;50.898;4.662;2022-12-07T11:32:45;7.40;99.90
29803;DHT22;16702;50.898;4.662;2022-12-07T11:35:24;7.50;99.90
29803;DHT22;16702;50.898;4.662;2022-12-07T11:38:00;7.50;99.90
29803;DHT22;16702;50.898;4.662;2022-12-07T11:40:34;7.50;99.90
29803;DHT22;16702;50.898;4.662;2022-12-07T11:43:14;7.70;99.90
29803;DHT22;16702;50.898;4.662;2022-12-07T11:45:53;7.60;99.90
29803;DHT22;16702;50.898;4.662;2022-12-07T11:48:35;7.50;99.90
29803;DHT22;16702;50.898;4.662;2022-12-07T11:51:10;7.50;99.90
29803;DHT22;16702;50.898;4.662;2022-12-07T11:53:44;7.60;99.90
29803;DHT22;16702;50.898;4.662;2022-12-07T11:56:17;7.70;99.90
29803;DHT22;16702;50.898;4.662;2022-12-07T11:58:52;7.70;99.90
29803;DHT22;16702;50.898;4.662;2022-12-07T12:01:35;7.70;99.90
29803;DHT22;16702;50.898;4.662;2022-12-07T12:04:22;7.70;99.90
29803;DHT22;16702;50.898;4.662;2022-12-07T12:06:57;7.70;99.90
29803;DHT22;16702;50.898;4.662;2022-12-07T12:09:51;7.80;99.90
29803;DHT22;16702;50.898;4.662;2022-12-07T12:12:46;7.70;99.90
29803;DHT22;16702;50.898;4.662;2022-12-07T12:15:57;7.80;99.90
29803;DHT22;16702;50.898;4.662;2022-12-07T12:18:46;7.90;99.90
29803;DHT22;16702;50.898;4.662;2022-12-07T12:21:21;7.70;99.90
29803;DHT22;16702;50.898;4.662;2022-12-07T12:23:57;7.70;99.90
29803;DHT22;16702;50.898;4.662;2022-12-07T12:26:30;7.70;99.90
29803;DHT22;16702;50.898;4.662;2022-12-07T12:29:04;7.80;99.90
29803;DHT22;16702;50.898;4.662;2022-12-07T12:31:40;7.90;99.90
29803;DHT22;16702;50.898;4.662;2022-12-07T12:34:32;7.80;99.90
29803;DHT22;16702;50.898;4.662;2022-12-07T12:46:53;7.70;99.90
29803;DHT22;16702;50.898;4.662;2022-12-07T12:49:54;7.80;99.90
29803;DHT22;16702;50.898;4.662;2022-12-07T12:58:50;8.10;99.90
29803;DHT22;16702;50.898;4.662;2022-12-07T13:01:42;8.20;99.90
29803;DHT22;16702;50.898;4.662;2022-12-07T13:07:50;8.20;99.90
29803;DHT22;16702;50.898;4.662;2022-12-07T13:10:28;8.20;99.90
29803;DHT22;16702;50.898;4.662;2022-12-07T13:13:03;8.30;99.90
29803;DHT22;16702;50.898;4.662;2022-12-07T13:15:36;8.30;99.90
29803;DHT22;16702;50.898;4.662;2022-12-07T13:18:23;8.40;99.90
29803;DHT22;16702;50.898;4.662;2022-12-07T13:20:56;8.50;99.90
29803;DHT22;16702;50.898;4.662;2022-12-07T13:23:32;8.40;99.90
29803;DHT22;16702;50.898;4.662;2022-12-07T13:26:21;8.50;99.90
29803;DHT22;16702;50.898;4.662;2022-12-07T13:29:05;8.50;99.90
29803;DHT22;16702;50.898;4.662;2022-12-07T13:31:39;8.50;99.90
29803;DHT22;16702;50.898;4.662;2022-12-07T13:34:29;8.50;99.90
29803;DHT22;16702;50.898;4.662;2022-12-07T13:37:00;8.40;99.90
29803;DHT22;16702;50.898;4.662;2022-12-07T13:39:35;8.40;99.90
29803;DHT22;16702;50.898;4.662;2022-12-07T13:42:22;8.40;99.90
29803;DHT22;16702;50.898;4.662;2022-12-07T13:44:55;8.30;99.90
29803;DHT22;16702;50.898;4.662;2022-12-07T13:47:34;8.20;99.90
29803;DHT22;16702;50.898;4.662;2022-12-07T13:50:22;8.20;99.90
29803;DHT22;16702;50.898;4.662;2022-12-07T13:52:55;8.20;99.90
29803;DHT22;16702;50.898;4.662;2022-12-07T13:55:29;8.10;99.90
29803;DHT22;16702;50.898;4.662;2022-12-07T13:57:59;8.20;99.90
29803;DHT22;16702;50.898;4.662;2022-12-07T14:00:30;8.20;99.90
29803;DHT22;16702;50.898;4.662;2022-12-07T14:03:03;8.10;99.90
29803;DHT22;16702;50.898;4.662;2022-12-07T14:05:35;8.10;99.90
29803;DHT22;16702;50.898;4.662;2022-12-07T14:08:21;8.00;99.90
29803;DHT22;16702;50.898;4.662;2022-12-07T14:10:57;8.10;99.90
29803;DHT22;16702;50.898;4.662;2022-12-07T14:13:32;8.10;99.90
29803;DHT22;16702;50.898;4.662;2022-12-07T14:16:22;8.10;99.90
29803;DHT22;16702;50.898;4.662;2022-12-07T14:18:54;8.10;99.90
29803;DHT22;16702;50.898;4.662;2022-12-07T14:21:26;8.10;99.90
29803;DHT22;16702;50.898;4.662;2022-12-07T14:24:16;8.10;99.90
29803;DHT22;16702;50.898;4.662;2022-12-07T14:26:50;8.10;99.90
29803;DHT22;16702;50.898;4.662;2022-12-07T14:29:28;8.10;99.90
29803;DHT22;16702;50.898;4.662;2022-12-07T14:32:19;8.00;99.90
29803;DHT22;16702;50.898;4.662;2022-12-07T14:35:08;8.00;99.90
29803;DHT22;16702;50.898;4.662;2022-12-07T14:37:41;7.90;99.90
29803;DHT22;16702;50.898;4.662;2022-12-07T14:40:13;7.90;99.90
29803;DHT22;16702;50.898;4.662;2022-12-07T14:42:49;7.90;99.90
29803;DHT22;16702;50.898;4.662;2022-12-07T14:45:22;7.80;99.90
29803;DHT22;16702;50.898;4.662;2022-12-07T14:47:52;7.70;99.90
29803;DHT22;16702;50.898;4.662;2022-12-07T14:50:45;7.80;99.90
29803;DHT22;16702;50.898;4.662;2022-12-07T14:53:41;7.80;99.90
29803;DHT22;16702;50.898;4.662;2022-12-07T14:56:19;7.70;99.90
29803;DHT22;16702;50.898;4.662;2022-12-07T14:58:52;7.70;99.90
29803;DHT22;16702;50.898;4.662;2022-12-07T15:01:22;7.70;99.90
29803;DHT22;16702;50.898;4.662;2022-12-07T15:03:53;7.70;99.90
29803;DHT22;16702;50.898;4.662;2022-12-07T15:06:23;7.70;99.90
29803;DHT22;16702;50.898;4.662;2022-12-07T15:08:54;7.70;99.90
29803;DHT22;16702;50.898;4.662;2022-12-07T15:11:25;7.70;99.90
29803;DHT22;16702;50.898;4.662;2022-12-07T15:13:58;7.70;99.90
29803;DHT22;16702;50.898;4.662;2022-12-07T15:16:42;7.70;99.90
29803;DHT22;16702;50.898;4.662;2022-12-07T15:19:32;7.70;99.90
29803;DHT22;16702;50.898;4.662;2022-12-07T15:22:03;7.70;99.90
29803;DHT22;16702;50.898;4.662;2022-12-07T15:24:33;7.60;99.90
29803;DHT22;16702;50.898;4.662;2022-12-07T15:27:04;7.60;99.90
29803;DHT22;16702;50.898;4.662;2022-12-07T15:29:37;7.60;99.90
29803;DHT22;16702;50.898;4.662;2022-12-07T15:32:08;7.50;99.90
29803;DHT22;16702;50.898;4.662;2022-12-07T15:34:38;7.50;99.90
29803;DHT22;16702;50.898;4.662;2022-12-07T15:37:08;7.50;99.90
29803;DHT22;16702;50.898;4.662;2022-12-07T15:39:39;7.60;99.90
29803;DHT22;16702;50.898;4.662;2022-12-07T15:42:10;7.60;99.90
29803;DHT22;16702;50.898;4.662;2022-12-07T15:44:42;7.60;99.90
29803;DHT22;16702;50.898;4.662;2022-12-07T15:47:25;7.60;99.90
29803;DHT22;16702;50.898;4.662;2022-12-07T15:49:56;7.50;99.90
29803;DHT22;16702;50.898;4.662;2022-12-07T15:52:26;7.50;99.90
29803;DHT22;16702;50.898;4.662;2022-12-07T15:54:56;7.50;99.90
29803;DHT22;16702;50.898;4.662;2022-12-07T15:57:27;7.60;99.90
29803;DHT22;16702;50.898;4.662;2022-12-07T16:00:01;7.50;99.90
29803;DHT22;16702;50.898;4.662;2022-12-07T16:02:33;7.50;99.90
29803;DHT22;16702;50.898;4.662;2022-12-07T16:05:07;7.50;99.90
29803;DHT22;16702;50.898;4.662;2022-12-07T16:07:37;7.50;99.90
29803;DHT22;16702;50.898;4.662;2022-12-07T16:10:09;7.50;99.90
29803;DHT22;16702;50.898;4.662;2022-12-07T16:12:39;7.50;99.90
29803;DHT22;16702;50.898;4.662;2022-12-07T16:15:13;7.50;99.90
29803;DHT22;16702;50.898;4.662;2022-12-07T16:17:50;7.50;99.90
29803;DHT22;16702;50.898;4.662;2022-12-07T16:20:22;7.50;99.90
29803;DHT22;16702;50.898;4.662;2022-12-07T16:22:53;7.50;99.90
29803;DHT22;16702;50.898;4.662;2022-12-07T16:25:23;7.50;99.90
29803;DHT22;16702;50.898;4.662;2022-12-07T16:27:54;7.50;99.90
29803;DHT22;16702;50.898;4.662;2022-12-07T16:30:27;7.50;99.90
29803;DHT22;16702;50.898;4.662;2022-12-07T16:32:57;7.60;99.90
29803;DHT22;16702;50.898;4.662;2022-12-07T16:35:29;7.60;99.90
29803;DHT22;16702;50.898;4.662;2022-12-07T16:37:59;7.50;99.90
29803;DHT22;16702;50.898;4.662;2022-12-07T16:40:30;7.60;99.90
29803;DHT22;16702;50.898;4.662;2022-12-07T16:43:00;7.50;99.90
29803;DHT22;16702;50.898;4.662;2022-12-07T16:45:33;7.50;99.90
29803;DHT22;16702;50.898;4.662;2022-12-07T16:48:06;7.60;99.90
29803;DHT22;16702;50.898;4.662;2022-12-07T16:50:39;7.50;99.90
29803;DHT22;16702;50.898;4.662;2022-12-07T16:53:17;7.50;99.90
29803;DHT22;16702;50.898;4.662;2022-12-07T16:55:48;7.60;99.90
29803;DHT22;16702;50.898;4.662;2022-12-07T16:58:18;7.50;99.90